Time;durP1;ratioP1;P1;durP2;ratioP2;P2;SDS_P1;SDS_P2;PMS_P1;PMS_P2;Temp;Humidity;BMP_temperature;BMP_pressure;BME280_temperature;BME280_humidity;BME280_pressure;Samples;Min_cycle;Max_cycle;Signal;HPM_P1;HPM_P2
2021/05/03 00:01:56;;;;;;;8.57;7.68;;;24.30;52.90;;;;;;4606416;57;21022;-31
2021/05/03 00:06:57;;;;;;;8.48;7.57;;;24.30;52.80;;;;;;4577695;57;21063;-36
2021/05/03 00:11:58;;;;;;;8.65;7.20;;;24.30;52.90;;;;;;4563398;61;21117;-35
2021/05/03 00:16:59;;;;;;;8.52;7.47;;;24.30;52.70;;;;;;4571999;57;21042;-24
2021/05/03 00:22:00;;;;;;;8.20;7.40;;;24.30;52.80;;;;;;4608630;57;21177;-35
2021/05/03 00:27:00;;;;;;;8.10;7.30;;;24.30;52.80;;;;;;4600574;56;21097;-28
2021/05/03 00:32:01;;;;;;;7.68;6.85;;;24.40;52.80;;;;;;4563728;57;21089;-19
2021/05/03 00:37:02;;;;;;;7.47;6.50;;;24.30;52.70;;;;;;4625818;56;22142;-32
2021/05/03 00:42:03;;;;;;;7.95;7.15;;;24.30;52.70;;;;;;4624194;56;22339;-35
2021/05/03 00:47:08;;;;;;;7.87;7.07;;;24.30;52.70;;;;;;4579154;57;21054;-28
2021/05/03 00:52:11;;;;;;;7.95;7.15;;;24.30;52.60;;;;;;4563083;61;21046;-34
2021/05/03 00:57:12;;;;;;;7.97;7.18;;;24.30;52.60;;;;;;4592645;57;21523;-23
2021/05/03 01:02:13;;;;;;;7.65;6.85;;;24.30;52.60;;;;;;4572717;57;21054;-30
2021/05/03 01:07:14;;;;;;;7.60;6.82;;;24.30;52.60;;;;;;4563735;61;21021;-35
2021/05/03 01:12:15;;;;;;;7.37;6.65;;;24.30;52.50;;;;;;4615175;56;22272;-26
2021/05/03 01:17:16;;;;;;;7.70;6.90;;;24.30;52.50;;;;;;4572602;57;21078;-32
2021/05/03 01:22:17;;;;;;;8.55;7.18;;;24.30;52.60;;;;;;4595116;57;21022;-31
2021/05/03 01:27:19;;;;;;;7.30;6.60;;;24.30;52.40;;;;;;4573380;57;21062;-29
2021/05/03 01:32:19;;;;;;;7.50;6.65;;;24.30;52.40;;;;;;4571793;56;21014;-34
2021/05/03 01:37:20;;;;;;;7.25;6.37;;;24.30;52.40;;;;;;4618907;56;21002;-26
2021/05/03 01:42:26;;;;;;;7.40;6.70;;;24.30;52.50;;;;;;4569050;57;21480;-26
2021/05/03 01:47:28;;;;;;;8.00;7.20;;;24.30;52.50;;;;;;4614262;57;21572;-35
2021/05/03 01:52:29;;;;;;;7.40;6.60;;;24.30;52.40;;;;;;4563504;61;21078;-23
2021/05/03 01:57:30;;;;;;;7.03;6.00;;;24.30;52.40;;;;;;4584006;57;20997;-27
2021/05/03 02:02:31;;;;;;;8.05;6.95;;;24.30;52.40;;;;;;4568960;57;21107;-26
2021/05/03 02:07:32;;;;;;;6.95;6.25;;;24.30;52.40;;;;;;4565079;57;21076;-23
2021/05/03 02:12:37;;;;;;;7.70;6.65;;;24.30;52.30;;;;;;4563216;58;21538;-36
2021/05/03 02:17:38;;;;;;;6.95;6.25;;;24.30;52.30;;;;;;4568531;56;21017;-21
2021/05/03 02:22:39;;;;;;;7.12;6.47;;;24.30;52.30;;;;;;4591629;56;21054;-32
2021/05/03 02:27:40;;;;;;;6.82;6.20;;;24.30;52.30;;;;;;4564299;57;21030;-29
2021/05/03 02:32:41;;;;;;;7.37;5.93;;;24.30;52.40;;;;;;4633270;57;21010;-22
2021/05/03 02:37:46;;;;;;;7.00;6.30;;;24.30;52.30;;;;;;4564730;57;21319;-29
2021/05/03 02:42:54;;;;;;;6.40;5.80;;;24.30;52.30;;;;;;4567900;57;21639;-34
2021/05/03 02:47:56;;;;;;;6.32;5.70;;;24.30;52.20;;;;;;4569982;57;21040;-30
2021/05/03 02:53:02;;;;;;;6.47;5.87;;;24.30;52.20;;;;;;4567601;57;21105;-33
2021/05/03 02:58:03;;;;;;;6.20;5.60;;;24.30;52.20;;;;;;4583457;57;21046;-32
2021/05/03 03:03:04;;;;;;;6.07;5.47;;;24.30;52.10;;;;;;4569586;57;21009;-25
2021/05/03 03:08:05;;;;;;;6.35;5.75;;;24.30;52.20;;;;;;4566445;57;21118;-29
2021/05/03 03:13:06;;;;;;;5.95;5.35;;;24.30;52.10;;;;;;4591519;57;21059;-33
2021/05/03 03:18:07;;;;;;;6.03;5.43;;;24.30;52.00;;;;;;4579222;57;21600;-24
2021/05/03 03:23:08;;;;;;;6.62;5.70;;;24.30;52.00;;;;;;4604429;56;21090;-27
2021/05/03 03:28:09;;;;;;;5.97;5.43;;;24.30;52.00;;;;;;4572475;57;21484;-19
2021/05/03 03:33:09;;;;;;;6.10;5.50;;;24.30;52.00;;;;;;4632032;57;21499;-23
2021/05/03 03:38:11;;;;;;;5.80;5.30;;;24.30;51.90;;;;;;4563398;61;22097;-21
2021/05/03 03:43:12;;;;;;;5.45;4.95;;;24.30;51.90;;;;;;4600508;57;21484;-24
2021/05/03 03:48:13;;;;;;;6.12;5.30;;;24.30;51.80;;;;;;4563065;61;21085;-23
2021/05/03 03:53:14;;;;;;;6.12;5.43;;;24.30;51.80;;;;;;4566405;57;21050;-28
2021/05/03 03:58:15;;;;;;;6.03;5.43;;;24.30;51.80;;;;;;4579005;57;21030;-23
2021/05/03 04:03:19;;;;;;;6.32;5.20;;;24.30;51.80;;;;;;4592362;57;21540;-24
2021/05/03 04:25:52;;;;;;;5.12;4.62;;;24.30;51.70;;;;;;4563049;57;21041;-22
2021/05/03 04:30:52;;;;;;;5.15;4.75;;;24.30;51.60;;;;;;4562617;61;21544;-35
2021/05/03 04:35:53;;;;;;;5.57;5.07;;;24.30;51.60;;;;;;4602039;57;21069;-33
2021/05/03 04:40:54;;;;;;;5.65;5.00;;;24.30;51.60;;;;;;4564197;57;21033;-20
2021/05/03 04:45:55;;;;;;;5.40;4.90;;;24.30;51.60;;;;;;4573837;57;21516;-26
2021/05/03 04:50:58;;;;;;;4.75;4.35;;;24.30;51.70;;;;;;4577712;57;21061;-29
2021/05/03 04:55:59;;;;;;;5.40;4.90;;;24.30;51.70;;;;;;4567120;57;21078;-29
2021/05/03 05:01:00;;;;;;;5.40;4.90;;;24.30;52.30;;;;;;4571189;57;21022;-31
2021/05/03 05:06:01;;;;;;;5.20;4.70;;;24.30;52.00;;;;;;4576036;57;21078;-35
2021/05/03 05:11:01;;;;;;;6.05;4.60;;;24.30;51.60;;;;;;4568753;57;21496;-23
2021/05/03 05:16:04;;;;;;;4.85;4.45;;;24.30;51.50;;;;;;4613571;57;21548;-27
2021/05/03 05:21:05;;;;;;;5.00;4.60;;;24.30;51.60;;;;;;4619492;57;21025;-35
2021/05/03 05:26:08;;;;;;;5.35;4.85;;;24.30;51.50;;;;;;4617295;56;21037;-32
2021/05/03 05:31:09;;;;;;;5.30;4.80;;;24.30;51.50;;;;;;4580180;56;21592;-28
2021/05/03 05:36:09;;;;;;;5.07;4.57;;;24.20;51.50;;;;;;4563084;61;21073;-34
2021/05/03 05:41:13;;;;;;;6.12;4.78;;;24.30;51.70;;;;;;4562515;61;21493;-34
2021/05/03 05:46:18;;;;;;;5.28;4.78;;;24.30;51.60;;;;;;4576945;57;21078;-33
2021/05/03 05:51:19;;;;;;;4.55;4.15;;;24.30;51.50;;;;;;4562527;57;21535;-25
2021/05/03 05:56:20;;;;;;;5.10;4.60;;;24.30;51.50;;;;;;4605023;57;21069;-21
2021/05/03 06:01:22;;;;;;;5.28;4.78;;;24.20;51.60;;;;;;4584175;57;21034;-25
2021/05/03 06:06:23;;;;;;;5.18;4.68;;;24.30;51.70;;;;;;4583844;57;21484;-29
2021/05/03 06:11:23;;;;;;;5.30;4.80;;;24.20;51.50;;;;;;4578387;57;21026;-27
2021/05/03 06:16:24;;;;;;;5.65;4.90;;;24.30;51.70;;;;;;4584562;56;21033;-27
2021/05/03 06:21:25;;;;;;;4.95;4.55;;;24.30;51.60;;;;;;4607222;56;21630;-23
2021/05/03 06:26:26;;;;;;;6.28;4.85;;;24.30;51.70;;;;;;4583610;57;21500;-29
2021/05/03 06:31:30;;;;;;;5.22;4.72;;;24.30;51.70;;;;;;4570910;57;21090;-24
2021/05/03 06:36:31;;;;;;;4.97;4.57;;;24.30;51.60;;;;;;4563142;61;21575;-24
2021/05/03 06:41:32;;;;;;;5.70;5.20;;;24.30;51.70;;;;;;4574619;57;21078;-29
2021/05/03 06:46:33;;;;;;;6.15;5.18;;;24.30;51.60;;;;;;4562750;61;21034;-17
2021/05/03 06:51:33;;;;;;;5.97;5.37;;;24.30;51.50;;;;;;4581771;57;21091;-25
2021/05/03 06:56:34;;;;;;;6.05;5.50;;;24.20;51.60;;;;;;4562580;61;21157;-31
2021/05/03 07:01:35;;;;;;;6.57;5.93;;;24.30;51.60;;;;;;4561768;61;21058;-22
2021/05/03 07:06:36;;;;;;;6.05;5.45;;;24.30;51.70;;;;;;4585314;57;21105;-29
2021/05/03 07:11:39;;;;;;;6.30;5.70;;;24.30;51.60;;;;;;4563032;61;21022;-27
2021/05/03 07:16:41;;;;;;;6.37;5.80;;;24.30;51.50;;;;;;4579929;57;21026;-29
2021/05/03 07:21:42;;;;;;;7.22;6.15;;;24.30;51.50;;;;;;4579460;56;22262;-29
2021/05/03 07:26:43;;;;;;;6.70;5.93;;;24.30;51.50;;;;;;4585237;57;21085;-25
2021/05/03 07:31:44;;;;;;;6.80;6.10;;;24.30;51.40;;;;;;4592316;57;21538;-29
2021/05/03 07:36:45;;;;;;;6.85;6.15;;;24.30;51.50;;;;;;4563941;61;21034;-25
2021/05/03 07:41:46;;;;;;;8.05;6.82;;;24.30;51.50;;;;;;4562110;61;21524;-22
2021/05/03 07:46:47;;;;;;;7.20;6.50;;;24.30;51.50;;;;;;4562546;61;21083;-29
2021/05/03 07:51:47;;;;;;;7.82;6.60;;;24.30;51.50;;;;;;4625405;56;21223;-28
2021/05/03 07:56:49;;;;;;;8.88;7.47;;;24.30;51.50;;;;;;4562654;61;21045;-34
2021/05/03 08:01:49;;;;;;;7.93;7.12;;;24.30;51.40;;;;;;4561930;61;21046;-29
2021/05/03 08:06:55;;;;;;;7.95;7.15;;;24.30;52.10;;;;;;4563365;61;21094;-28
2021/05/03 08:11:56;;;;;;;8.10;7.30;;;24.30;51.30;;;;;;4562947;57;21555;-31
2021/05/03 08:17:04;;;;;;;8.10;7.32;;;24.30;51.30;;;;;;4574646;56;21021;-21
2021/05/03 08:22:05;;;;;;;9.00;7.72;;;24.30;51.20;;;;;;4587547;57;21070;-25
2021/05/03 08:27:07;;;;;;;10.02;7.85;;;24.20;51.20;;;;;;4564820;57;21037;-35
2021/05/03 08:32:09;;;;;;;8.70;7.55;;;24.20;51.00;;;;;;4563229;61;21014;-29
2021/05/03 08:37:09;;;;;;;8.60;7.70;;;24.30;51.00;;;;;;4587638;57;21037;-29
2021/05/03 08:42:11;;;;;;;8.43;7.53;;;24.30;51.00;;;;;;4591799;57;21106;-29
2021/05/03 08:47:13;;;;;;;9.10;8.20;;;24.30;50.90;;;;;;4587257;57;21690;-29
2021/05/03 08:52:23;;;;;;;9.05;8.15;;;24.20;50.80;;;;;;4568643;57;21105;-24
2021/05/03 08:57:24;;;;;;;10.27;8.48;;;24.20;50.80;;;;;;4563047;57;21157;-28
2021/05/03 09:02:26;;;;;;;9.05;8.15;;;24.20;50.60;;;;;;4572983;57;20994;-31
2021/05/03 09:07:27;;;;;;;10.35;9.23;;;24.20;50.80;;;;;;4577994;57;21013;-23
2021/05/03 09:12:28;;;;;;;9.80;8.80;;;24.20;50.60;;;;;;4570708;57;21512;-32
2021/05/03 09:17:44;;;;;;;9.77;8.80;;;24.20;50.60;;;;;;4579920;57;21022;-27
2021/05/03 09:22:53;;;;;;;10.13;8.95;;;24.20;50.60;;;;;;4570040;57;21472;-29
2021/05/03 09:29:47;;;;;;;10.30;9.30;;;24.30;50.60;;;;;;4584860;57;21585;-26
2021/05/03 09:34:51;;;;;;;11.50;9.40;;;24.20;50.50;;;;;;4605702;57;21022;-32
2021/05/03 09:39:57;;;;;;;11.10;9.95;;;24.20;50.30;;;;;;4571938;56;21531;-29
2021/05/03 09:45:06;;;;;;;11.68;10.35;;;24.20;50.30;;;;;;4581109;57;21602;-27
2021/05/03 09:50:10;;;;;;;11.68;9.95;;;24.20;50.40;;;;;;4582606;57;21504;-34
2021/05/03 09:55:31;;;;;;;13.55;11.02;;;24.20;50.40;;;;;;4567614;57;21075;-35
2021/05/03 10:00:41;;;;;;;12.30;11.00;;;24.20;50.20;;;;;;4571228;57;21041;-31
2021/05/03 10:05:42;;;;;;;14.18;11.15;;;24.30;50.40;;;;;;4570616;57;21021;-29
2021/05/03 10:10:47;;;;;;;14.15;11.40;;;24.30;50.40;;;;;;4563465;57;21515;-30
2021/05/03 10:15:50;;;;;;;14.57;11.82;;;24.30;50.30;;;;;;4591658;57;21496;-34
2021/05/03 10:20:51;;;;;;;13.93;11.75;;;24.30;50.30;;;;;;4603408;57;21106;-31
2021/05/03 10:25:58;;;;;;;13.52;11.82;;;24.20;50.20;;;;;;4565867;57;21068;-25
2021/05/03 10:30:59;;;;;;;13.20;11.77;;;24.20;50.20;;;;;;4575881;57;21018;-26
2021/05/03 10:36:00;;;;;;;14.48;12.93;;;24.30;50.20;;;;;;4594768;57;21061;-29
2021/05/03 10:41:04;;;;;;;15.10;12.43;;;24.30;50.30;;;;;;4571440;56;21386;-24
2021/05/03 10:46:57;;;;;;;15.73;13.10;;;24.20;50.10;;;;;;4566374;57;21118;-27
2021/05/03 10:52:02;;;;;;;15.77;13.68;;;24.30;50.10;;;;;;4595448;57;21627;-29
2021/05/03 10:57:08;;;;;;;14.00;12.52;;;24.30;50.20;;;;;;4568612;57;21587;-23
2021/05/03 11:02:11;;;;;;;16.30;13.48;;;24.30;50.10;;;;;;4598994;57;21041;-32
2021/05/03 11:07:12;;;;;;;15.50;13.75;;;24.30;50.20;;;;;;4580292;57;21033;-33
2021/05/03 11:12:34;;;;;;;15.35;13.65;;;24.30;50.10;;;;;;4580812;57;21029;-33
2021/05/03 11:17:35;;;;;;;15.90;14.23;;;24.20;50.10;;;;;;4593332;56;21014;-36
2021/05/03 11:22:47;;;;;;;19.05;15.32;;;24.30;50.20;;;;;;4597122;57;21059;-33
2021/05/03 11:28:03;;;;;;;16.83;14.10;;;24.30;50.10;;;;;;4631937;56;21041;-24
2021/05/03 11:33:09;;;;;;;17.00;15.15;;;24.30;50.10;;;;;;4563062;61;21607;-29
2021/05/03 11:38:39;;;;;;;17.77;14.18;;;24.20;50.10;;;;;;4589305;57;21499;-35
2021/05/03 11:49:44;;;;;;;19.15;15.35;;;24.20;50.10;;;;;;4582912;57;21560;-22
2021/05/03 11:54:45;;;;;;;17.67;15.55;;;24.30;50.10;;;;;;4607820;57;21018;-34
2021/05/03 11:59:57;;;;;;;19.15;15.02;;;24.30;50.70;;;;;;4575579;57;21054;-32
2021/05/03 12:04:58;;;;;;;20.17;16.62;;;24.30;50.10;;;;;;4612096;57;21033;-33
2021/05/03 12:10:07;;;;;;;19.02;15.30;;;24.20;50.10;;;;;;4563452;61;21025;-24
2021/05/03 12:15:29;;;;;;;18.20;15.80;;;24.30;50.10;;;;;;4594637;56;21523;-33
2021/05/03 12:20:32;;;;;;;18.73;16.20;;;24.30;50.20;;;;;;4579075;57;21619;-31
2021/05/03 12:26:07;;;;;;;20.40;16.75;;;24.30;49.60;;;;;;4575547;57;21094;-24
2021/05/03 12:32:18;;;;;;;18.25;16.15;;;24.30;50.00;;;;;;4564256;57;21568;-31
2021/05/03 12:37:23;;;;;;;20.27;16.23;;;24.30;50.10;;;;;;4608163;57;21484;-37
2021/05/03 12:42:40;;;;;;;22.75;17.70;;;24.30;50.00;;;;;;4599508;57;21580;-32
2021/05/03 12:54:23;;;;;;;19.02;16.20;;;24.20;50.00;;;;;;4625422;56;20115;-21
2021/05/03 12:59:46;;;;;;;18.90;16.90;;;24.20;50.00;;;;;;4563172;61;21045;-34
2021/05/03 13:05:12;;;;;;;;;;;;;;;;;;;;;
2021/05/03 13:32:27;;;;;;;21.85;17.95;;;24.30;50.00;;;;;;4587942;57;21053;-24
2021/05/03 13:37:28;;;;;;;20.73;17.98;;;24.30;50.10;;;;;;4563441;61;21542;-30
2021/05/03 13:42:29;;;;;;;19.67;17.02;;;24.30;50.10;;;;;;4568984;57;21619;-25
2021/05/03 13:47:30;;;;;;;19.87;17.55;;;24.30;50.20;;;;;;4562810;61;21038;-23
2021/05/03 13:52:32;;;;;;;22.20;18.23;;;24.30;50.10;;;;;;4617590;56;21081;-24
2021/05/03 13:57:33;;;;;;;19.75;17.08;;;24.30;50.20;;;;;;4563040;61;21515;-25
2021/05/03 14:02:34;;;;;;;21.75;18.40;;;24.20;50.20;;;;;;4595860;57;21153;-32
2021/05/03 14:07:34;;;;;;;20.30;17.35;;;24.30;50.20;;;;;;4596976;57;21619;-30
2021/05/03 14:12:35;;;;;;;22.95;18.77;;;24.30;50.30;;;;;;4604626;56;21133;-29
2021/05/03 14:17:36;;;;;;;20.50;18.30;;;24.20;50.20;;;;;;4562849;61;21014;-24
2021/05/03 14:22:40;;;;;;;21.05;18.30;;;24.20;50.20;;;;;;4562668;61;21583;-22
2021/05/03 14:27:43;;;;;;;22.45;18.30;;;24.30;50.30;;;;;;4562792;61;21042;-31
2021/05/03 14:32:49;;;;;;;21.80;19.40;;;24.30;50.40;;;;;;4643340;57;21633;-25
2021/05/03 14:37:51;;;;;;;21.52;18.48;;;24.30;50.40;;;;;;4580572;57;21500;-31
2021/05/03 14:43:05;;;;;;;23.87;19.67;;;24.30;50.30;;;;;;4579595;57;21082;-29
2021/05/03 14:48:15;;;;;;;21.73;19.40;;;24.30;50.30;;;;;;4573514;57;22128;-34
2021/05/03 14:59:17;;;;;;;23.52;21.02;;;24.30;51.00;;;;;;4565289;57;21556;-34
2021/05/03 15:04:18;;;;;;;21.95;19.50;;;24.30;50.30;;;;;;4565498;57;21085;-35
2021/05/03 15:09:25;;;;;;;25.90;20.58;;;24.30;50.40;;;;;;4579612;57;21042;-23
2021/05/03 15:16:25;;;;;;;23.58;21.00;;;24.30;50.30;;;;;;4605455;57;21154;-30
2021/05/03 15:21:37;;;;;;;23.27;20.77;;;24.30;50.40;;;;;;4568279;57;21635;-30
2021/05/03 15:26:48;;;;;;;24.27;21.67;;;24.30;50.40;;;;;;4563717;61;21619;-35
2021/05/03 15:32:19;;;;;;;24.87;21.58;;;24.30;50.30;;;;;;4575953;57;21492;-16
2021/05/03 15:37:20;;;;;;;25.83;23.02;;;24.30;50.30;;;;;;4563541;61;21508;-32
2021/05/03 15:42:22;;;;;;;27.23;22.45;;;24.30;50.30;;;;;;4562339;61;21519;-26
2021/05/03 15:47:22;;;;;;;24.73;21.95;;;24.30;50.20;;;;;;4632918;56;21054;-27
2021/05/03 15:52:23;;;;;;;25.73;22.05;;;24.20;50.20;;;;;;4563632;57;21104;-15
2021/05/03 15:57:24;;;;;;;25.35;21.87;;;24.30;50.10;;;;;;4564737;57;21041;-26
2021/05/03 16:02:25;;;;;;;25.20;21.35;;;24.30;50.10;;;;;;4565565;57;21500;-36
2021/05/03 16:07:27;;;;;;;24.48;21.75;;;24.30;50.00;;;;;;4590889;57;21030;-29
2021/05/03 16:12:28;;;;;;;24.23;21.40;;;24.30;50.00;;;;;;4588515;57;21623;-31
2021/05/03 16:17:28;;;;;;;25.05;21.90;;;24.30;50.00;;;;;;4575456;57;21111;-31
2021/05/03 16:22:30;;;;;;;26.80;21.83;;;24.30;49.90;;;;;;4562393;61;21073;-31
2021/05/03 16:27:31;;;;;;;25.92;21.98;;;24.30;49.80;;;;;;4600165;56;21492;-29
2021/05/03 16:32:32;;;;;;;24.73;22.13;;;24.30;49.80;;;;;;4565255;57;21030;-34
2021/05/03 16:37:33;;;;;;;25.08;22.27;;;24.30;49.70;;;;;;4579699;57;21022;-18
2021/05/03 16:42:34;;;;;;;24.98;21.48;;;24.30;49.70;;;;;;4562511;61;21042;-31
2021/05/03 16:47:35;;;;;;;26.00;22.65;;;24.30;50.30;;;;;;4565202;57;21082;-33
2021/05/03 16:52:36;;;;;;;25.80;22.20;;;24.30;49.60;;;;;;4590323;57;21580;-28
2021/05/03 16:57:36;;;;;;;25.62;22.60;;;24.30;49.60;;;;;;4566844;57;21584;-29
2021/05/03 17:02:38;;;;;;;24.98;21.60;;;24.30;49.60;;;;;;4566387;57;21567;-31
2021/05/03 17:07:38;;;;;;;25.77;22.02;;;24.30;49.60;;;;;;4570131;57;21070;-34
2021/05/03 17:12:41;;;;;;;24.67;21.75;;;24.30;49.50;;;;;;4590401;57;21054;-35
2021/05/03 17:17:42;;;;;;;24.42;21.83;;;24.30;50.10;;;;;;4599964;57;21579;-34
2021/05/03 17:22:43;;;;;;;24.83;22.23;;;24.30;49.40;;;;;;4571907;57;21042;-30
2021/05/03 17:27:43;;;;;;;24.55;21.62;;;24.30;49.40;;;;;;4589765;57;21045;-33
2021/05/03 17:32:44;;;;;;;24.98;21.77;;;24.30;49.30;;;;;;4575835;57;21579;-37
2021/05/03 17:37:45;;;;;;;27.67;23.17;;;24.30;49.70;;;;;;4568013;57;21025;-18
2021/05/03 17:42:46;;;;;;;24.05;21.50;;;24.30;49.50;;;;;;4576707;57;21061;-35
2021/05/03 17:47:47;;;;;;;25.90;22.65;;;24.30;49.30;;;;;;4567578;57;21058;-32
2021/05/03 17:52:49;;;;;;;25.83;21.83;;;24.30;49.20;;;;;;4563842;57;21121;-37
2021/05/03 17:57:50;;;;;;;24.52;21.98;;;24.30;49.30;;;;;;4563475;56;21496;-33
2021/05/03 18:02:51;;;;;;;24.42;21.80;;;24.30;49.30;;;;;;4564565;57;21054;-35
2021/05/03 18:07:52;;;;;;;27.23;22.75;;;24.30;49.30;;;;;;4563431;61;21086;-24
2021/05/03 18:12:52;;;;;;;25.33;21.55;;;24.30;49.20;;;;;;4571497;57;21560;-34
2021/05/03 18:18:00;;;;;;;25.55;22.83;;;24.30;49.10;;;;;;4562704;61;21187;-35
2021/05/03 18:23:01;;;;;;;24.33;21.73;;;24.30;49.10;;;;;;4639921;57;21040;-31
2021/05/03 18:28:01;;;;;;;25.15;22.37;;;24.30;49.00;;;;;;4575584;57;21006;-32
2021/05/03 18:33:05;;;;;;;24.27;21.23;;;24.30;49.00;;;;;;4563120;61;21140;-22
2021/05/03 18:38:06;;;;;;;24.98;21.85;;;24.30;49.00;;;;;;4579609;56;21646;-35
2021/05/03 18:43:07;;;;;;;24.15;21.25;;;24.30;49.00;;;;;;4562561;57;21045;-32
2021/05/03 18:48:08;;;;;;;25.37;22.42;;;24.30;49.00;;;;;;4576020;57;21592;-30
2021/05/03 18:53:09;;;;;;;25.10;22.25;;;24.30;49.00;;;;;;4589317;57;21113;-26
2021/05/03 18:58:10;;;;;;;25.92;21.87;;;24.30;49.00;;;;;;4573799;57;21083;-29
2021/05/03 19:03:11;;;;;;;24.67;21.50;;;24.30;48.90;;;;;;4564887;57;21511;-36
2021/05/03 19:08:11;;;;;;;25.17;21.58;;;24.30;48.90;;;;;;4564259;57;21014;-28
2021/05/03 19:13:12;;;;;;;23.52;21.05;;;24.30;48.90;;;;;;4585229;57;21030;-23
2021/05/03 19:18:14;;;;;;;22.17;19.77;;;24.30;48.80;;;;;;4590396;57;21086;-33
2021/05/03 19:23:19;;;;;;;23.20;20.70;;;24.30;48.90;;;;;;4643768;57;21508;-35
2021/05/03 19:28:47;;;;;;;24.20;21.12;;;24.30;48.80;;;;;;4567092;57;21504;-18
2021/05/03 19:33:58;;;;;;;24.15;21.55;;;24.30;48.90;;;;;;4563454;61;21532;-35
2021/05/03 19:38:59;;;;;;;24.80;21.52;;;24.30;49.00;;;;;;4596785;57;21093;-32
2021/05/03 19:44:00;;;;;;;23.42;20.90;;;24.30;48.90;;;;;;4581692;57;21511;-33
2021/05/03 19:49:08;;;;;;;23.67;21.17;;;24.30;49.00;;;;;;4575985;57;21053;-32
2021/05/03 19:55:46;;;;;;;23.40;20.90;;;24.30;49.20;;;;;;4581760;56;21528;-34
2021/05/03 20:06:08;;;;;;;23.35;20.33;;;24.30;48.90;;;;;;4562592;61;21158;-23
2021/05/03 20:11:10;;;;;;;22.62;20.27;;;24.30;48.90;;;;;;4591934;57;21535;-26
2021/05/03 20:16:11;;;;;;;23.00;20.60;;;24.30;48.90;;;;;;4616222;57;21532;-31
2021/05/03 20:21:12;;;;;;;22.30;20.00;;;24.30;49.00;;;;;;4582296;57;21572;-24
2021/05/03 20:26:13;;;;;;;22.98;20.58;;;24.30;49.00;;;;;;4617295;57;21105;-29
2021/05/03 20:31:13;;;;;;;21.62;19.33;;;24.30;49.00;;;;;;4574536;57;21511;-36
2021/05/03 20:37:35;;;;;;;23.50;20.98;;;24.30;49.00;;;;;;4575894;57;21006;-35
2021/05/03 20:42:39;;;;;;;22.65;20.23;;;24.30;49.60;;;;;;4581470;57;21647;-33
2021/05/03 20:47:40;;;;;;;21.77;19.40;;;24.30;49.00;;;;;;4592146;56;21038;-33
2021/05/03 20:52:41;;;;;;;23.08;20.67;;;24.30;49.00;;;;;;4615688;56;21175;-30
2021/05/03 20:57:42;;;;;;;21.42;19.23;;;24.30;49.00;;;;;;4568105;57;21018;-20
2021/05/03 21:02:42;;;;;;;21.50;19.30;;;24.30;49.00;;;;;;4568228;57;21500;-28
2021/05/03 21:07:44;;;;;;;20.83;18.65;;;24.30;49.10;;;;;;4592873;57;21567;-27
2021/05/03 21:12:47;;;;;;;23.02;19.80;;;24.30;49.20;;;;;;4591019;57;21053;-35
2021/05/03 21:17:48;;;;;;;23.40;20.67;;;24.30;49.10;;;;;;4564015;61;21054;-32
2021/05/03 21:22:52;;;;;;;21.17;18.92;;;24.30;49.10;;;;;;4588661;57;21536;-34
2021/05/03 21:27:53;;;;;;;21.12;18.87;;;24.30;49.00;;;;;;4600161;56;21749;-21
2021/05/03 21:32:57;;;;;;;20.55;18.33;;;24.30;49.10;;;;;;4584533;57;21070;-16
2021/05/03 21:37:58;;;;;;;21.85;19.65;;;24.30;49.10;;;;;;4627243;57;21030;-33
2021/05/03 21:42:59;;;;;;;22.02;19.60;;;24.20;49.10;;;;;;4571046;57;21076;-27
2021/05/03 21:48:00;;;;;;;21.08;18.77;;;24.20;49.00;;;;;;4586527;57;21170;-35
2021/05/03 21:53:01;;;;;;;22.20;19.40;;;24.30;49.10;;;;;;4581271;57;22158;-34
2021/05/03 21:58:02;;;;;;;20.67;18.58;;;24.20;49.10;;;;;;4577676;57;21069;-30
2021/05/03 22:03:52;;;;;;;21.83;19.48;;;24.30;49.00;;;;;;4561980;61;21093;-35
2021/05/03 22:08:53;;;;;;;21.50;18.85;;;24.30;49.10;;;;;;4582868;57;21054;-30
2021/05/03 22:14:05;;;;;;;19.27;17.27;;;24.20;49.10;;;;;;4562952;61;21090;-35
2021/05/03 22:19:21;;;;;;;20.37;18.20;;;24.30;49.20;;;;;;4569049;57;21575;-35
2021/05/03 22:24:28;;;;;;;21.02;18.83;;;24.30;49.10;;;;;;4585411;57;21560;-21
2021/05/03 22:29:29;;;;;;;21.12;18.92;;;24.30;49.20;;;;;;4576139;57;21534;-34
2021/05/03 22:34:30;;;;;;;19.60;17.48;;;24.20;49.10;;;;;;4582874;57;21018;-31
2021/05/03 22:40:42;;;;;;;19.90;17.77;;;24.20;49.10;;;;;;4584142;57;21029;-33
2021/05/03 23:17:40;;;;;;;20.12;18.02;;;24.20;49.00;;;;;;4566052;57;21042;-33
2021/05/03 23:22:40;;;;;;;19.50;17.48;;;24.20;49.10;;;;;;4566683;57;21533;-35
2021/05/03 23:27:43;;;;;;;20.80;18.50;;;24.20;49.10;;;;;;4615579;56;21163;-25
2021/05/03 23:32:44;;;;;;;19.50;17.40;;;24.20;49.10;;;;;;4562678;61;21030;-36
2021/05/03 23:37:44;;;;;;;20.42;18.23;;;24.20;49.10;;;;;;4589208;57;21488;-34
2021/05/03 23:42:45;;;;;;;19.02;17.02;;;24.20;49.00;;;;;;4562382;61;21041;-35
2021/05/03 23:47:46;;;;;;;19.35;17.25;;;24.20;49.10;;;;;;4563100;58;21512;-27
2021/05/03 23:52:48;;;;;;;17.95;16.05;;;24.20;49.10;;;;;;4575715;57;21136;-35
2021/05/03 23:57:48;;;;;;;19.87;17.73;;;24.20;49.00;;;;;;4567099;57;21071;-32
